createdAt,value
2023-02-15T00:00:06.784Z,2.80
2023-02-15T00:02:36.542Z,2.40
2023-02-15T00:05:07.105Z,3.20
2023-02-15T00:07:36.907Z,2.80
2023-02-15T00:10:07.861Z,13.97
2023-02-15T00:12:40.251Z,2.60
2023-02-15T00:15:12.696Z,2.10
2023-02-15T00:17:42.519Z,2.60
2023-02-15T00:20:13.670Z,2.97
2023-02-15T00:22:43.446Z,3.03
2023-02-15T00:25:13.663Z,2.70
2023-02-15T00:27:46.017Z,3.17
2023-02-15T00:30:17.237Z,2.60
2023-02-15T00:32:47.473Z,2.60
2023-02-15T00:35:18.083Z,3.20
2023-02-15T00:37:47.901Z,2.30
2023-02-15T00:40:21.900Z,2.07
2023-02-15T00:42:54.516Z,2.83
2023-02-15T00:45:24.968Z,2.17
2023-02-15T00:47:55.612Z,3.43
2023-02-15T00:50:25.387Z,2.40
2023-02-15T00:52:55.377Z,3.37
2023-02-15T00:55:25.953Z,2.43
2023-02-15T01:00:49.083Z,1.93
2023-02-15T01:03:20.430Z,3.03
2023-02-15T01:05:51.748Z,2.07
2023-02-15T01:08:21.947Z,2.80
2023-02-15T01:10:52.137Z,2.00
2023-02-15T01:13:26.063Z,2.13
2023-02-15T01:15:58.863Z,2.27
2023-02-15T01:18:31.007Z,2.60
2023-02-15T01:21:01.232Z,2.50
2023-02-15T01:23:32.596Z,2.13
2023-02-15T01:26:05.985Z,2.27
2023-02-15T01:28:38.926Z,1.80
2023-02-15T01:31:11.236Z,4.40
2023-02-15T01:33:41.975Z,1.67
2023-02-15T01:36:14.351Z,4.13
2023-02-15T01:38:44.323Z,2.17
2023-02-15T01:41:31.270Z,4.03
2023-02-15T01:44:05.652Z,2.93
2023-02-15T01:46:40.999Z,2.90
2023-02-15T01:49:15.834Z,1.73
2023-02-15T01:51:48.006Z,2.20
2023-02-15T01:54:26.004Z,1.80
2023-02-15T01:56:59.435Z,2.40
2023-02-15T01:59:32.770Z,1.80
2023-02-15T02:02:05.410Z,2.43
2023-02-15T02:04:39.032Z,2.20
2023-02-15T02:07:11.049Z,2.50
2023-02-15T02:09:41.973Z,1.40
2023-02-15T02:12:13.842Z,1.70
2023-02-15T02:14:46.628Z,2.63
2023-02-15T02:17:25.018Z,1.67
2023-02-15T02:20:37.193Z,2.50
2023-02-15T02:23:27.363Z,2.03
2023-02-15T02:26:31.803Z,2.70
2023-02-15T02:29:38.760Z,2.23
2023-02-15T02:32:39.916Z,1.43
2023-02-15T02:35:19.380Z,1.67
2023-02-15T02:37:58.474Z,1.70
2023-02-15T02:40:34.932Z,1.70
2023-02-15T02:43:11.382Z,2.50
2023-02-15T02:45:47.196Z,4.63
2023-02-15T02:48:21.795Z,1.70
2023-02-15T02:50:55.523Z,1.70
2023-02-15T02:53:25.399Z,1.77
2023-02-15T02:56:00.209Z,1.83
2023-02-15T02:58:36.068Z,1.47
2023-02-15T03:01:13.208Z,2.37
2023-02-15T03:03:46.300Z,1.50
2023-02-15T03:06:23.088Z,2.10
2023-02-15T03:08:57.440Z,3.37
2023-02-15T03:11:27.588Z,1.43
2023-02-15T03:13:58.576Z,1.70
2023-02-15T03:16:29.982Z,2.17
2023-02-15T03:19:05.091Z,2.30
2023-02-15T03:21:42.420Z,1.70
2023-02-15T03:24:16.727Z,1.97
2023-02-15T03:26:51.467Z,1.47
2023-02-15T03:29:26.254Z,1.70
2023-02-15T03:32:03.051Z,2.07
2023-02-15T03:34:33.452Z,1.67
2023-02-15T03:37:12.647Z,1.73
2023-02-15T03:39:48.931Z,1.50
2023-02-15T03:42:26.794Z,1.93
2023-02-15T03:45:02.881Z,1.33
2023-02-15T03:47:37.719Z,1.90
2023-02-15T03:50:32.568Z,2.30
2023-02-15T03:53:09.357Z,4.80
2023-02-15T03:55:40.278Z,6.70
2023-02-15T03:58:38.551Z,1.50
2023-02-15T04:01:30.186Z,2.27
2023-02-15T04:04:03.933Z,1.87
2023-02-15T04:06:34.568Z,1.90
2023-02-15T04:09:45.161Z,1.97
2023-02-15T04:12:18.104Z,1.80
2023-02-15T04:15:00.820Z,1.23
2023-02-15T04:17:31.095Z,1.90
2023-02-15T04:20:13.592Z,2.03
2023-02-15T05:05:38.993Z,2.60
2023-02-15T05:08:09.009Z,1.87
2023-02-15T05:10:38.900Z,1.80
2023-02-15T05:13:09.117Z,1.50
2023-02-15T05:15:38.938Z,2.30
2023-02-15T05:18:09.586Z,1.57
2023-02-15T05:20:42.386Z,1.63
2023-02-15T05:23:14.034Z,2.80
2023-02-15T05:25:56.416Z,2.10
2023-02-15T05:28:28.536Z,3.17
2023-02-15T05:31:06.903Z,2.80
2023-02-15T05:33:37.861Z,4.30
2023-02-15T05:36:10.975Z,3.47
2023-02-15T05:38:47.886Z,2.37
2023-02-15T05:41:17.822Z,1.40
2023-02-15T05:50:02.497Z,4.37
2023-02-15T05:52:35.268Z,4.73
2023-02-15T05:55:05.384Z,2.07
2023-02-15T05:57:35.597Z,2.20
2023-02-15T06:00:06.724Z,0.90
2023-02-15T06:02:44.169Z,0.90
2023-02-15T06:05:13.980Z,1.57
2023-02-15T06:07:47.186Z,1.00
2023-02-15T06:10:17.321Z,1.30
2023-02-15T06:12:48.182Z,1.43
2023-02-15T06:15:18.224Z,1.10
2023-02-15T06:17:48.456Z,0.97
2023-02-15T06:20:18.462Z,1.47
2023-02-15T06:22:51.471Z,1.30
2023-02-15T06:25:21.283Z,2.70
2023-02-15T06:27:51.463Z,1.57
2023-02-15T06:30:21.774Z,1.77
2023-02-15T06:32:52.148Z,2.67
2023-02-15T06:35:23.040Z,1.40
2023-02-15T06:37:56.064Z,1.00
2023-02-15T06:40:25.907Z,1.90
2023-02-15T06:42:55.734Z,1.40
2023-02-15T06:45:25.599Z,1.23
2023-02-15T06:47:55.480Z,0.70
2023-02-15T06:50:25.338Z,1.57
2023-02-15T06:53:02.246Z,1.03
2023-02-15T06:55:32.125Z,1.17
2023-02-15T06:58:02.003Z,2.03
2023-02-15T07:00:31.860Z,2.97
2023-02-15T07:03:03.882Z,2.27
2023-02-15T07:05:37.705Z,2.37
2023-02-15T07:08:10.459Z,2.93
2023-02-15T07:10:40.314Z,5.10
2023-02-15T07:13:07.547Z,3.33
2023-02-15T07:15:37.568Z,5.23
2023-02-15T07:18:08.775Z,5.23
2023-02-15T07:20:39.116Z,6.13
2023-02-15T07:23:12.104Z,9.63
2023-02-15T07:25:41.950Z,8.30
2023-02-15T07:28:13.013Z,11.60
2023-02-15T07:30:42.912Z,7.60
2023-02-15T07:33:28.491Z,5.23
2023-02-15T07:36:00.945Z,2.93
2023-02-15T07:38:36.249Z,2.03
2023-02-15T07:41:08.221Z,1.97
2023-02-15T07:43:41.061Z,0.90
2023-02-15T07:46:13.735Z,1.17
2023-02-15T07:48:45.076Z,1.00
2023-02-15T07:51:15.750Z,2.03
2023-02-15T07:53:49.217Z,3.03
2023-02-15T07:56:19.244Z,1.90
2023-02-15T07:58:57.047Z,2.90
2023-02-15T08:01:28.909Z,1.00
2023-02-15T08:03:59.740Z,1.00
2023-02-15T08:06:31.463Z,1.57
2023-02-15T08:09:04.536Z,1.00
2023-02-15T08:11:41.912Z,1.50
2023-02-15T08:14:14.701Z,1.00
2023-02-15T08:16:46.369Z,1.20
2023-02-15T08:22:20.054Z,1.30
2023-02-15T08:24:52.545Z,0.87
2023-02-15T08:30:10.776Z,1.50
2023-02-15T08:32:41.680Z,1.07
2023-02-15T08:35:31.289Z,1.40
2023-02-15T08:38:13.534Z,1.20
2023-02-15T08:40:46.007Z,0.90
2023-02-15T08:43:16.115Z,1.00
2023-02-15T08:45:45.984Z,0.87
2023-02-15T08:48:16.074Z,0.90
2023-02-15T08:50:45.869Z,0.60
2023-02-15T08:53:16.860Z,0.80
2023-02-15T08:55:52.684Z,1.00
2023-02-15T08:58:22.525Z,0.70
2023-02-15T09:00:52.436Z,0.70
2023-02-15T09:03:22.345Z,0.50
2023-02-15T09:05:52.181Z,0.80
2023-02-15T09:08:22.199Z,0.70
2023-02-15T09:10:54.734Z,0.80
2023-02-15T09:13:24.956Z,0.70
2023-02-15T09:15:54.718Z,1.30
2023-02-15T09:18:24.772Z,1.13
2023-02-15T09:20:56.331Z,0.80
2023-02-15T09:23:35.606Z,0.83
2023-02-15T09:26:35.991Z,1.27
2023-02-15T09:29:06.733Z,1.23
2023-02-15T09:31:42.309Z,1.10
2023-02-15T09:34:12.492Z,1.00
2023-02-15T09:36:44.094Z,1.00
2023-02-15T09:39:16.101Z,0.93
2023-02-15T09:42:11.966Z,1.23
2023-02-15T09:45:01.738Z,1.63
2023-02-15T09:48:00.425Z,2.03
2023-02-15T09:50:39.452Z,1.10
2023-02-15T09:53:31.945Z,1.30
2023-02-15T09:56:08.450Z,2.00
2023-02-15T09:58:50.366Z,2.00
2023-02-15T10:01:29.491Z,1.40
2023-02-15T10:04:15.013Z,1.90
2023-02-15T10:06:52.529Z,1.97
2023-02-15T10:09:40.407Z,1.80
2023-02-15T10:12:26.273Z,3.30
2023-02-15T10:15:20.094Z,2.13
2023-02-15T10:18:09.898Z,2.30
2023-02-15T10:20:53.596Z,2.10
2023-02-15T10:23:43.684Z,3.60
2023-02-15T10:26:23.900Z,2.47
2023-02-15T10:28:56.627Z,3.33
2023-02-15T10:31:36.252Z,3.43
2023-02-15T10:34:18.649Z,3.30
2023-02-15T10:37:09.991Z,3.30
2023-02-15T10:39:48.115Z,4.10
2023-02-15T10:42:27.812Z,3.80
2023-02-15T10:45:15.288Z,5.20
2023-02-15T10:48:01.069Z,5.23
2023-02-15T10:50:49.187Z,4.50
2023-02-15T10:53:32.438Z,5.03
2023-02-15T10:56:15.857Z,5.70
2023-02-15T10:59:01.757Z,4.27
2023-02-15T11:01:38.054Z,5.17
2023-02-15T11:04:44.029Z,3.70
2023-02-15T11:07:20.624Z,4.53
2023-02-15T11:09:54.904Z,5.83
2023-02-15T11:12:28.074Z,4.77
2023-02-15T11:15:04.853Z,4.37
2023-02-15T11:17:41.869Z,4.60
2023-02-15T11:20:22.956Z,5.30
2023-02-15T11:22:55.007Z,5.47
2023-02-15T11:25:32.983Z,4.93
2023-02-15T11:28:04.181Z,4.97
2023-02-15T11:30:45.970Z,4.83
2023-02-15T11:33:23.382Z,4.87
2023-02-15T11:36:00.633Z,6.90
2023-02-15T11:38:35.600Z,4.90
2023-02-15T11:41:09.423Z,4.50
2023-02-15T11:43:43.531Z,4.27
2023-02-15T11:46:17.026Z,5.80
2023-02-15T11:48:47.216Z,5.13
2023-02-15T11:51:23.931Z,5.13
2023-02-15T11:53:55.264Z,4.23
2023-02-15T11:56:27.390Z,4.10
2023-02-15T11:59:01.405Z,4.50
2023-02-15T12:01:35.651Z,3.53
2023-02-15T12:04:11.970Z,4.30
2023-02-15T12:06:49.423Z,4.70
2023-02-15T12:09:28.801Z,5.33
2023-02-15T12:12:26.248Z,4.43
2023-02-15T12:14:58.625Z,3.97
2023-02-15T12:17:32.180Z,5.10
2023-02-15T12:20:06.092Z,5.00
2023-02-15T12:22:40.681Z,5.03
2023-02-15T12:25:27.398Z,4.33
2023-02-15T12:27:58.217Z,5.30
2023-02-15T12:30:35.163Z,4.50
2023-02-15T12:33:18.106Z,4.50
2023-02-15T12:35:50.863Z,5.20
2023-02-15T12:38:31.086Z,5.40
2023-02-15T12:41:03.842Z,5.20
2023-02-15T12:43:38.019Z,5.33
2023-02-15T12:46:23.726Z,6.03
2023-02-15T12:49:11.535Z,5.37
2023-02-15T12:51:50.993Z,5.23
2023-02-15T12:54:41.101Z,5.87
2023-02-15T12:57:28.494Z,6.33
2023-02-15T13:00:01.640Z,5.70
2023-02-15T13:02:37.443Z,5.77
2023-02-15T13:05:22.134Z,5.77
2023-02-15T13:07:55.727Z,6.17
2023-02-15T13:10:36.118Z,6.70
2023-02-15T13:13:14.604Z,5.53
2023-02-15T13:15:48.333Z,6.47
2023-02-15T13:18:23.640Z,5.50
2023-02-15T13:20:54.624Z,5.63
2023-02-15T13:23:31.162Z,4.10
2023-02-15T13:26:08.011Z,5.33
2023-02-15T13:28:43.949Z,5.60
2023-02-15T13:31:17.765Z,5.83
2023-02-15T13:33:52.175Z,6.33
2023-02-15T13:36:27.945Z,5.17
2023-02-15T13:39:09.573Z,5.87
2023-02-15T13:41:53.945Z,6.10
2023-02-15T13:44:38.280Z,4.93
2023-02-15T13:47:21.405Z,6.03
2023-02-15T13:50:07.192Z,4.97
2023-02-15T13:52:43.252Z,5.03
2023-02-15T13:55:31.289Z,5.20
2023-02-15T13:58:35.945Z,5.43
2023-02-15T14:01:13.712Z,6.00
2023-02-15T14:04:17.544Z,5.63
2023-02-15T14:07:20.370Z,4.67
2023-02-15T14:10:00.958Z,4.93
2023-02-15T14:12:49.678Z,4.70
2023-02-15T14:15:36.174Z,4.93
2023-02-15T14:18:24.027Z,5.50
2023-02-15T14:21:07.970Z,5.20
2023-02-15T14:23:47.591Z,5.23
2023-02-15T14:26:25.195Z,4.83
2023-02-15T14:29:00.751Z,5.43
2023-02-15T14:31:41.728Z,5.33
2023-02-15T14:34:24.296Z,5.13
2023-02-15T14:36:56.525Z,5.80
2023-02-15T14:39:48.379Z,5.30
2023-02-15T14:42:29.133Z,5.63
2023-02-15T14:45:04.157Z,5.83
2023-02-15T14:47:40.955Z,6.00
2023-02-15T14:50:46.900Z,5.70
2023-02-15T14:53:37.034Z,6.50
2023-02-15T14:56:21.389Z,6.13
2023-02-15T14:59:04.208Z,6.50
2023-02-15T15:01:37.324Z,5.40
2023-02-15T15:04:13.059Z,4.97
2023-02-15T15:06:45.621Z,5.27
2023-02-15T15:09:22.364Z,6.20
2023-02-15T15:11:53.375Z,5.63
2023-02-15T15:14:42.244Z,5.80
2023-02-15T15:17:18.036Z,6.70
2023-02-15T15:20:38.406Z,6.20
2023-02-15T15:23:44.023Z,7.03
2023-02-15T15:26:34.735Z,5.67
2023-02-15T15:29:06.232Z,5.70
2023-02-15T15:31:45.634Z,6.60
2023-02-15T15:34:47.993Z,5.80
2023-02-15T15:37:52.680Z,5.90
2023-02-15T15:40:52.387Z,6.47
2023-02-15T15:44:04.291Z,6.03
2023-02-15T15:47:01.575Z,5.90
2023-02-15T15:49:36.702Z,6.33
2023-02-15T15:52:16.259Z,6.30
2023-02-15T15:54:51.445Z,6.17
2023-02-15T15:57:29.558Z,6.20
2023-02-15T16:00:00.772Z,7.30
2023-02-15T16:02:31.210Z,6.60
2023-02-15T16:05:11.328Z,7.17
2023-02-15T16:07:44.771Z,9.43
2023-02-15T16:10:25.742Z,8.93
2023-02-15T16:12:57.021Z,9.20
2023-02-15T16:15:31.509Z,9.27
2023-02-15T16:18:03.294Z,8.20
2023-02-15T16:20:37.462Z,8.67
2023-02-15T16:23:20.459Z,7.70
2023-02-15T16:26:06.026Z,9.53
2023-02-15T16:28:36.651Z,9.73
2023-02-15T16:31:12.981Z,8.13
2023-02-15T16:33:45.851Z,9.33
2023-02-15T16:36:26.292Z,9.20
2023-02-15T16:39:20.583Z,5.90
2023-02-15T16:42:00.412Z,6.77
2023-02-15T16:44:33.960Z,6.37
2023-02-15T16:47:05.710Z,9.57
2023-02-15T16:49:38.113Z,8.53
2023-02-15T16:52:10.990Z,8.33
2023-02-15T16:54:40.854Z,10.63
2023-02-15T16:57:21.589Z,8.43
2023-02-15T16:59:53.638Z,7.63
2023-02-15T17:02:49.245Z,8.23
2023-02-15T17:05:21.892Z,7.20
2023-02-15T17:08:09.529Z,8.30
2023-02-15T17:10:42.807Z,8.43
2023-02-15T17:13:17.526Z,6.03
2023-02-15T17:15:48.503Z,7.13
2023-02-15T17:18:22.460Z,6.60
2023-02-15T17:20:55.742Z,8.03
2023-02-15T17:23:29.463Z,7.07
2023-02-15T17:26:00.844Z,6.30
2023-02-15T17:28:35.461Z,6.23
2023-02-15T17:31:11.119Z,7.50
2023-02-15T17:33:42.037Z,9.77
2023-02-15T17:36:16.934Z,10.13
2023-02-15T17:39:12.240Z,6.70
2023-02-15T17:41:50.115Z,6.57
2023-02-15T17:44:22.562Z,5.30
2023-02-15T17:46:52.416Z,7.07
2023-02-15T17:49:29.463Z,5.83
2023-02-15T17:52:00.938Z,7.27
2023-02-15T17:54:43.188Z,7.13
2023-02-15T17:57:16.666Z,6.00
2023-02-15T18:00:01.625Z,5.10
2023-02-15T18:02:50.054Z,6.50
2023-02-15T18:05:33.908Z,7.33
2023-02-15T18:08:16.391Z,7.63
2023-02-15T18:11:03.944Z,6.03
2023-02-15T18:13:37.202Z,9.77
2023-02-15T18:16:14.091Z,6.67
2023-02-15T18:18:46.548Z,7.33
2023-02-15T18:21:16.942Z,6.80
2023-02-15T18:23:50.337Z,7.60
2023-02-15T18:26:23.115Z,7.93
2023-02-15T18:28:53.580Z,9.20
2023-02-15T18:31:30.150Z,8.73
2023-02-15T18:34:06.429Z,7.30
2023-02-15T18:36:47.387Z,8.07
2023-02-15T18:39:34.760Z,8.53
2023-02-15T18:42:07.823Z,8.70
2023-02-15T18:44:37.933Z,7.63
2023-02-15T18:47:10.406Z,7.43
2023-02-15T18:49:45.340Z,7.03
2023-02-15T18:52:18.868Z,7.70
2023-02-15T18:54:49.753Z,7.93
2023-02-15T18:57:20.094Z,6.73
2023-02-15T18:59:49.990Z,7.67
2023-02-15T19:02:22.682Z,7.63
2023-02-15T19:04:52.793Z,8.10
2023-02-15T19:07:39.278Z,8.07
2023-02-15T19:10:16.574Z,10.37
2023-02-15T19:12:50.312Z,6.90
2023-02-15T19:15:22.828Z,8.43
2023-02-15T19:17:56.603Z,7.03
2023-02-15T19:20:30.683Z,8.27
2023-02-15T19:23:02.940Z,7.83
2023-02-15T19:25:37.744Z,8.57
2023-02-15T19:28:16.940Z,9.90
2023-02-15T19:30:47.186Z,8.40
2023-02-15T19:33:23.841Z,10.80
2023-02-15T19:35:57.658Z,8.40
2023-02-15T19:38:32.352Z,9.20
2023-02-15T19:41:12.295Z,9.00
2023-02-15T19:43:44.739Z,10.00
2023-02-15T19:46:20.386Z,9.17
2023-02-15T19:48:56.522Z,9.03
2023-02-15T19:51:26.776Z,8.20
2023-02-15T19:53:57.873Z,9.20
2023-02-15T19:56:27.797Z,8.57
2023-02-15T19:58:58.679Z,10.53
2023-02-15T20:01:29.269Z,9.60
2023-02-15T20:04:01.949Z,9.70
2023-02-15T20:06:31.929Z,12.50
2023-02-15T20:09:01.920Z,12.43
2023-02-15T20:11:32.102Z,9.93
2023-02-15T20:14:02.363Z,12.30
2023-02-15T20:16:32.638Z,10.33
2023-02-15T20:19:04.997Z,9.50
2023-02-15T20:21:36.202Z,11.03
2023-02-15T20:24:07.918Z,8.17
2023-02-15T20:26:38.469Z,11.63
2023-02-15T20:29:10.295Z,9.23
2023-02-15T20:31:40.617Z,11.50
2023-02-15T20:34:14.313Z,9.43
2023-02-15T20:36:44.751Z,9.40
2023-02-15T20:39:17.498Z,14.43
2023-02-15T20:41:49.744Z,11.10
2023-02-15T20:44:25.540Z,10.57
2023-02-15T20:46:58.115Z,12.83
2023-02-15T20:49:31.069Z,9.97
2023-02-15T20:52:07.780Z,11.50
2023-02-15T20:54:39.622Z,12.60
2023-02-15T20:57:12.080Z,11.57
2023-02-15T20:59:43.615Z,11.97
2023-02-15T21:02:20.438Z,12.60
2023-02-15T21:04:53.814Z,10.40
2023-02-15T21:07:26.639Z,9.67
2023-02-15T21:10:00.364Z,12.07
2023-02-15T21:12:30.432Z,11.83
2023-02-15T21:15:00.599Z,12.17
2023-02-15T21:17:30.415Z,10.93
2023-02-15T21:20:02.729Z,11.17
2023-02-15T21:22:32.961Z,12.03
2023-02-15T21:25:03.045Z,9.67
2023-02-15T21:27:32.984Z,10.77
2023-02-15T21:30:03.051Z,11.10
2023-02-15T21:32:33.187Z,11.67
2023-02-15T21:35:05.626Z,10.60
2023-02-15T21:37:40.112Z,11.63
2023-02-15T21:40:20.430Z,11.13
2023-02-15T21:43:03.195Z,12.30
2023-02-15T21:45:46.023Z,14.87
2023-02-15T21:48:16.341Z,12.00
2023-02-15T21:51:01.642Z,11.67
2023-02-15T21:53:35.071Z,11.97
2023-02-15T21:56:06.833Z,11.80
2023-02-15T21:58:39.541Z,13.27
2023-02-15T22:01:09.933Z,11.07
2023-02-15T22:03:41.096Z,12.00
2023-02-15T22:06:15.762Z,12.73
2023-02-15T22:08:45.714Z,11.23
2023-02-15T22:11:17.499Z,11.13
2023-02-15T22:13:48.376Z,11.80
2023-02-15T22:16:21.147Z,14.73
2023-02-15T22:18:51.423Z,13.50
2023-02-15T22:21:26.602Z,11.97
2023-02-15T22:23:56.367Z,12.13
2023-02-15T22:26:27.460Z,11.40
2023-02-15T22:28:59.548Z,13.53
2023-02-15T22:31:30.688Z,11.80
2023-02-15T22:34:00.878Z,12.07
2023-02-15T22:36:34.012Z,14.07
2023-02-15T22:39:04.294Z,13.17
2023-02-15T22:41:34.449Z,12.90
2023-02-15T22:44:04.470Z,15.50
2023-02-15T22:46:34.359Z,12.53
2023-02-15T22:49:05.959Z,11.07
2023-02-15T22:51:38.858Z,14.50
2023-02-15T22:54:09.087Z,12.40
2023-02-15T22:56:42.072Z,12.27
2023-02-15T22:59:18.791Z,14.13
2023-02-15T23:01:48.824Z,15.27
2023-02-15T23:04:21.598Z,11.67
2023-02-15T23:06:55.386Z,12.97
2023-02-15T23:09:25.571Z,11.37
2023-02-15T23:11:56.610Z,14.17
2023-02-15T23:14:36.979Z,12.00
2023-02-15T23:17:06.864Z,14.57
2023-02-15T23:19:36.879Z,13.80
2023-02-15T23:22:15.704Z,12.67
2023-02-15T23:24:46.262Z,13.57
2023-02-15T23:27:31.951Z,12.53
2023-02-15T23:30:01.805Z,12.97
2023-02-15T23:32:32.339Z,13.30
2023-02-15T23:35:16.755Z,10.83
2023-02-15T23:37:49.416Z,12.80
2023-02-15T23:40:37.555Z,12.17
2023-02-15T23:43:08.530Z,10.80
2023-02-15T23:45:41.388Z,11.50
2023-02-15T23:48:35.299Z,13.30
2023-02-15T23:51:06.429Z,13.27
2023-02-15T23:53:39.235Z,11.63
2023-02-15T23:56:09.544Z,13.63
2023-02-15T23:58:43.009Z,12.03
